sensor_id;sensor_type;location;lat;lon;timestamp;pressure;altitude;pressure_sealevel;temperature;humidity
56070;BME280;41944;52.078;-0.058;2022-12-10T00:01:21;100642.75;;;-0.72;96.20
56070;BME280;41944;52.078;-0.058;2022-12-10T00:03:48;100640.28;;;-0.93;96.58
56070;BME280;41944;52.078;-0.058;2022-12-10T00:06:18;100642.60;;;-0.84;96.96
56070;BME280;41944;52.078;-0.058;2022-12-10T00:08:45;100648.95;;;-0.81;96.90
56070;BME280;41944;52.078;-0.058;2022-12-10T00:11:15;100648.79;;;-0.88;97.00
56070;BME280;41944;52.078;-0.058;2022-12-10T00:13:42;100647.89;;;-0.79;96.90
56070;BME280;41944;52.078;-0.058;2022-12-10T00:16:11;100645.04;;;-0.86;96.95
56070;BME280;41944;52.078;-0.058;2022-12-10T00:18:39;100646.30;;;-0.71;96.37
56070;BME280;41944;52.078;-0.058;2022-12-10T00:21:09;100639.84;;;-0.81;96.28
56070;BME280;41944;52.078;-0.058;2022-12-10T00:23:37;100642.14;;;-0.87;96.35
56070;BME280;41944;52.078;-0.058;2022-12-10T00:26:05;100644.70;;;-0.91;96.70
56070;BME280;41944;52.078;-0.058;2022-12-10T00:28:32;100647.25;;;-0.81;96.60
56070;BME280;41944;52.078;-0.058;2022-12-10T00:31:04;100651.63;;;-0.92;96.71
56070;BME280;41944;52.078;-0.058;2022-12-10T00:33:33;100657.73;;;-1.03;97.16
56070;BME280;41944;52.078;-0.058;2022-12-10T00:36:04;100657.49;;;-1.14;97.53
56070;BME280;41944;52.078;-0.058;2022-12-10T00:38:32;100657.05;;;-1.04;97.81
56070;BME280;41944;52.078;-0.058;2022-12-10T00:41:00;100649.63;;;-1.01;97.38
56070;BME280;41944;52.078;-0.058;2022-12-10T00:43:27;100645.66;;;-0.83;97.00
56070;BME280;41944;52.078;-0.058;2022-12-10T00:45:54;100643.11;;;-0.91;96.66
56070;BME280;41944;52.078;-0.058;2022-12-10T00:48:22;100644.66;;;-0.96;96.92
56070;BME280;41944;52.078;-0.058;2022-12-10T00:50:59;100652.96;;;-1.05;97.15
56070;BME280;41944;52.078;-0.058;2022-12-10T00:53:30;100646.30;;;-0.97;97.24
56070;BME280;41944;52.078;-0.058;2022-12-10T00:55:58;100655.64;;;-1.11;97.82
56070;BME280;41944;52.078;-0.058;2022-12-10T00:58:28;100654.12;;;-1.13;98.42
56070;BME280;41944;52.078;-0.058;2022-12-10T01:01:06;100660.55;;;-1.19;98.48
56070;BME280;41944;52.078;-0.058;2022-12-10T01:03:33;100662.09;;;-1.23;98.61
56070;BME280;41944;52.078;-0.058;2022-12-10T01:06:08;100661.45;;;-1.01;98.20
56070;BME280;41944;52.078;-0.058;2022-12-10T01:08:35;100657.68;;;-1.06;98.01
56070;BME280;41944;52.078;-0.058;2022-12-10T01:11:02;100659.70;;;-1.00;97.61
56070;BME280;41944;52.078;-0.058;2022-12-10T01:13:29;100659.90;;;-1.06;97.68
56070;BME280;41944;52.078;-0.058;2022-12-10T01:15:56;100659.20;;;-1.04;97.55
56070;BME280;41944;52.078;-0.058;2022-12-10T01:18:23;100661.63;;;-1.02;97.15
56070;BME280;41944;52.078;-0.058;2022-12-10T01:20:50;100660.29;;;-1.09;97.26
56070;BME280;41944;52.078;-0.058;2022-12-10T01:23:17;100658.56;;;-1.21;97.48
56070;BME280;41944;52.078;-0.058;2022-12-10T01:25:45;100659.82;;;-1.20;97.33
56070;BME280;41944;52.078;-0.058;2022-12-10T01:28:12;100660.99;;;-1.29;97.78
56070;BME280;41944;52.078;-0.058;2022-12-10T01:30:39;100663.79;;;-1.34;98.17
56070;BME280;41944;52.078;-0.058;2022-12-10T01:33:06;100662.42;;;-1.28;98.18
56070;BME280;41944;52.078;-0.058;2022-12-10T01:35:36;100669.07;;;-1.31;98.50
56070;BME280;41944;52.078;-0.058;2022-12-10T01:38:03;100671.28;;;-1.36;98.93
56070;BME280;41944;52.078;-0.058;2022-12-10T01:40:30;100671.51;;;-1.35;98.93
56070;BME280;41944;52.078;-0.058;2022-12-10T01:42:57;100670.08;;;-1.15;98.49
56070;BME280;41944;52.078;-0.058;2022-12-10T01:45:24;100674.02;;;-1.23;98.39
56070;BME280;41944;52.078;-0.058;2022-12-10T01:47:51;100673.55;;;-1.31;98.76
56070;BME280;41944;52.078;-0.058;2022-12-10T01:50:18;100671.91;;;-1.28;98.94
56070;BME280;41944;52.078;-0.058;2022-12-10T01:52:45;100674.90;;;-1.31;98.86
56070;BME280;41944;52.078;-0.058;2022-12-10T01:55:47;100671.80;;;-1.35;98.69
56070;BME280;41944;52.078;-0.058;2022-12-10T01:58:16;100671.69;;;-1.40;98.63
56070;BME280;41944;52.078;-0.058;2022-12-10T02:00:51;100674.11;;;-1.25;98.43
56070;BME280;41944;52.078;-0.058;2022-12-10T02:03:29;100674.23;;;-1.30;98.63
56070;BME280;41944;52.078;-0.058;2022-12-10T02:06:09;100677.12;;;-1.37;99.04
56070;BME280;41944;52.078;-0.058;2022-12-10T02:08:46;100674.60;;;-1.27;99.26
56070;BME280;41944;52.078;-0.058;2022-12-10T02:11:22;100674.37;;;-1.35;99.48
56070;BME280;41944;52.078;-0.058;2022-12-10T02:13:56;100671.41;;;-1.20;99.19
56070;BME280;41944;52.078;-0.058;2022-12-10T02:16:33;100668.26;;;-1.19;98.97
56070;BME280;41944;52.078;-0.058;2022-12-10T02:19:07;100669.86;;;-1.28;99.33
56070;BME280;41944;52.078;-0.058;2022-12-10T02:21:42;100670.70;;;-1.04;98.96
56070;BME280;41944;52.078;-0.058;2022-12-10T02:24:13;100666.81;;;-1.21;98.32
56070;BME280;41944;52.078;-0.058;2022-12-10T02:26:47;100667.62;;;-1.37;98.43
56070;BME280;41944;52.078;-0.058;2022-12-10T02:29:19;100665.61;;;-1.44;98.87
56070;BME280;41944;52.078;-0.058;2022-12-10T02:31:47;100661.39;;;-1.41;99.58
56070;BME280;41944;52.078;-0.058;2022-12-10T02:34:18;100666.85;;;-1.28;98.92
56070;BME280;41944;52.078;-0.058;2022-12-10T02:36:48;100668.77;;;-1.43;98.61
56070;BME280;41944;52.078;-0.058;2022-12-10T02:39:20;100672.35;;;-1.34;98.88
56070;BME280;41944;52.078;-0.058;2022-12-10T02:41:53;100676.91;;;-1.35;98.91
56070;BME280;41944;52.078;-0.058;2022-12-10T02:44:22;100677.25;;;-1.35;99.09
56070;BME280;41944;52.078;-0.058;2022-12-10T02:46:53;100678.78;;;-1.42;99.14
56070;BME280;41944;52.078;-0.058;2022-12-10T02:49:22;100677.86;;;-1.39;99.22
56070;BME280;41944;52.078;-0.058;2022-12-10T02:51:52;100676.70;;;-1.40;99.39
56070;BME280;41944;52.078;-0.058;2022-12-10T02:54:40;100672.61;;;-1.46;99.62
56070;BME280;41944;52.078;-0.058;2022-12-10T02:57:19;100669.17;;;-1.54;99.53
56070;BME280;41944;52.078;-0.058;2022-12-10T03:00:01;100663.72;;;-1.54;99.58
56070;BME280;41944;52.078;-0.058;2022-12-10T03:02:34;100665.25;;;-1.66;99.47
56070;BME280;41944;52.078;-0.058;2022-12-10T03:05:11;100666.85;;;-1.66;99.81
56070;BME280;41944;52.078;-0.058;2022-12-10T03:07:42;100665.09;;;-1.56;99.98
56070;BME280;41944;52.078;-0.058;2022-12-10T03:10:17;100669.45;;;-1.50;100.00
56070;BME280;41944;52.078;-0.058;2022-12-10T03:12:51;100673.61;;;-1.40;100.00
56070;BME280;41944;52.078;-0.058;2022-12-10T03:15:22;100677.63;;;-1.49;100.00
56070;BME280;41944;52.078;-0.058;2022-12-10T03:17:51;100676.56;;;-1.47;100.00
56070;BME280;41944;52.078;-0.058;2022-12-10T03:20:18;100676.03;;;-1.42;100.00
56070;BME280;41944;52.078;-0.058;2022-12-10T03:22:47;100673.52;;;-1.40;100.00
56070;BME280;41944;52.078;-0.058;2022-12-10T03:25:19;100672.86;;;-1.50;100.00
56070;BME280;41944;52.078;-0.058;2022-12-10T03:27:49;100668.85;;;-1.60;99.80
56070;BME280;41944;52.078;-0.058;2022-12-10T03:30:18;100671.86;;;-1.71;100.00
56070;BME280;41944;52.078;-0.058;2022-12-10T03:32:45;100663.07;;;-1.73;100.00
56070;BME280;41944;52.078;-0.058;2022-12-10T03:35:14;100663.27;;;-1.75;100.00
56070;BME280;41944;52.078;-0.058;2022-12-10T03:37:42;100665.31;;;-1.81;100.00
56070;BME280;41944;52.078;-0.058;2022-12-10T03:40:11;100661.89;;;-1.76;100.00
56070;BME280;41944;52.078;-0.058;2022-12-10T03:42:38;100656.22;;;-1.81;100.00
56070;BME280;41944;52.078;-0.058;2022-12-10T03:45:06;100661.81;;;-1.75;100.00
56070;BME280;41944;52.078;-0.058;2022-12-10T03:47:33;100663.96;;;-1.69;100.00
56070;BME280;41944;52.078;-0.058;2022-12-10T03:50:00;100667.38;;;-1.67;100.00
56070;BME280;41944;52.078;-0.058;2022-12-10T03:52:28;100666.56;;;-1.75;100.00
56070;BME280;41944;52.078;-0.058;2022-12-10T03:54:55;100665.14;;;-1.69;100.00
56070;BME280;41944;52.078;-0.058;2022-12-10T03:57:22;100667.67;;;-1.69;100.00
56070;BME280;41944;52.078;-0.058;2022-12-10T03:59:49;100666.42;;;-1.65;100.00
56070;BME280;41944;52.078;-0.058;2022-12-10T04:02:16;100664.43;;;-1.77;100.00
56070;BME280;41944;52.078;-0.058;2022-12-10T04:04:43;100662.58;;;-1.81;100.00
56070;BME280;41944;52.078;-0.058;2022-12-10T04:07:10;100659.11;;;-1.83;100.00
56070;BME280;41944;52.078;-0.058;2022-12-10T04:09:37;100656.76;;;-1.90;100.00
56070;BME280;41944;52.078;-0.058;2022-12-10T04:12:05;100657.76;;;-1.92;100.00
56070;BME280;41944;52.078;-0.058;2022-12-10T04:14:32;100655.69;;;-1.93;100.00
56070;BME280;41944;52.078;-0.058;2022-12-10T04:16:59;100656.08;;;-2.03;100.00
56070;BME280;41944;52.078;-0.058;2022-12-10T04:19:27;100652.68;;;-2.05;100.00
56070;BME280;41944;52.078;-0.058;2022-12-10T04:21:55;100654.94;;;-2.08;100.00
56070;BME280;41944;52.078;-0.058;2022-12-10T04:24:24;100654.81;;;-2.13;100.00
56070;BME280;41944;52.078;-0.058;2022-12-10T04:26:51;100655.26;;;-2.14;100.00
56070;BME280;41944;52.078;-0.058;2022-12-10T04:29:18;100655.05;;;-2.26;100.00
56070;BME280;41944;52.078;-0.058;2022-12-10T04:31:45;100656.68;;;-2.24;100.00
56070;BME280;41944;52.078;-0.058;2022-12-10T04:34:12;100663.68;;;-2.30;100.00
56070;BME280;41944;52.078;-0.058;2022-12-10T04:36:39;100668.18;;;-2.32;100.00
56070;BME280;41944;52.078;-0.058;2022-12-10T04:39:07;100664.84;;;-2.32;100.00
56070;BME280;41944;52.078;-0.058;2022-12-10T04:41:34;100667.42;;;-2.32;100.00
56070;BME280;41944;52.078;-0.058;2022-12-10T04:44:01;100668.03;;;-2.32;100.00
56070;BME280;41944;52.078;-0.058;2022-12-10T04:46:28;100668.03;;;-2.33;100.00
56070;BME280;41944;52.078;-0.058;2022-12-10T04:48:55;100665.82;;;-2.33;100.00
56070;BME280;41944;52.078;-0.058;2022-12-10T04:51:22;100667.82;;;-2.36;100.00
56070;BME280;41944;52.078;-0.058;2022-12-10T04:53:49;100665.87;;;-2.36;100.00
56070;BME280;41944;52.078;-0.058;2022-12-10T04:56:16;100670.07;;;-2.32;100.00
56070;BME280;41944;52.078;-0.058;2022-12-10T04:58:43;100670.66;;;-2.35;100.00
56070;BME280;41944;52.078;-0.058;2022-12-10T05:01:11;100670.49;;;-2.32;100.00
56070;BME280;41944;52.078;-0.058;2022-12-10T05:03:39;100663.68;;;-2.27;100.00
56070;BME280;41944;52.078;-0.058;2022-12-10T05:06:08;100664.27;;;-2.21;100.00
56070;BME280;41944;52.078;-0.058;2022-12-10T05:08:37;100666.90;;;-2.23;100.00
56070;BME280;41944;52.078;-0.058;2022-12-10T05:11:06;100665.78;;;-2.15;100.00
56070;BME280;41944;52.078;-0.058;2022-12-10T05:13:34;100672.85;;;-2.00;100.00
56070;BME280;41944;52.078;-0.058;2022-12-10T05:16:02;100671.03;;;-2.07;100.00
56070;BME280;41944;52.078;-0.058;2022-12-10T05:18:29;100671.44;;;-2.03;100.00
56070;BME280;41944;52.078;-0.058;2022-12-10T05:20:58;100668.90;;;-2.00;100.00
56070;BME280;41944;52.078;-0.058;2022-12-10T05:23:25;100669.16;;;-1.99;100.00
56070;BME280;41944;52.078;-0.058;2022-12-10T05:25:58;100669.46;;;-1.92;100.00
56070;BME280;41944;52.078;-0.058;2022-12-10T05:28:25;100672.32;;;-1.98;100.00
56070;BME280;41944;52.078;-0.058;2022-12-10T05:30:52;100670.34;;;-1.93;100.00
56070;BME280;41944;52.078;-0.058;2022-12-10T05:33:19;100672.31;;;-1.83;100.00
56070;BME280;41944;52.078;-0.058;2022-12-10T05:35:52;100674.00;;;-1.89;100.00
56070;BME280;41944;52.078;-0.058;2022-12-10T05:38:19;100672.45;;;-1.93;100.00
56070;BME280;41944;52.078;-0.058;2022-12-10T05:40:46;100671.49;;;-1.88;100.00
56070;BME280;41944;52.078;-0.058;2022-12-10T05:43:14;100667.91;;;-1.81;100.00
56070;BME280;41944;52.078;-0.058;2022-12-10T05:45:41;100664.49;;;-1.91;100.00
56070;BME280;41944;52.078;-0.058;2022-12-10T05:48:08;100664.93;;;-1.95;100.00
56070;BME280;41944;52.078;-0.058;2022-12-10T05:50:36;100659.86;;;-2.00;100.00
56070;BME280;41944;52.078;-0.058;2022-12-10T05:53:03;100659.17;;;-2.01;100.00
56070;BME280;41944;52.078;-0.058;2022-12-10T05:55:30;100657.25;;;-1.93;100.00
56070;BME280;41944;52.078;-0.058;2022-12-10T05:57:57;100661.81;;;-2.04;100.00
56070;BME280;41944;52.078;-0.058;2022-12-10T06:00:24;100663.02;;;-2.05;100.00
56070;BME280;41944;52.078;-0.058;2022-12-10T06:02:51;100665.41;;;-2.09;100.00
56070;BME280;41944;52.078;-0.058;2022-12-10T06:05:18;100664.04;;;-2.11;100.00
56070;BME280;41944;52.078;-0.058;2022-12-10T06:07:45;100664.70;;;-2.21;100.00
56070;BME280;41944;52.078;-0.058;2022-12-10T06:10:13;100665.06;;;-2.20;100.00
56070;BME280;41944;52.078;-0.058;2022-12-10T06:12:40;100666.52;;;-2.08;100.00
56070;BME280;41944;52.078;-0.058;2022-12-10T06:15:07;100662.71;;;-2.06;100.00
56070;BME280;41944;52.078;-0.058;2022-12-10T06:17:35;100662.34;;;-2.06;100.00
56070;BME280;41944;52.078;-0.058;2022-12-10T06:20:02;100663.01;;;-2.07;100.00
56070;BME280;41944;52.078;-0.058;2022-12-10T06:22:29;100658.72;;;-1.88;100.00
56070;BME280;41944;52.078;-0.058;2022-12-10T06:24:56;100657.39;;;-1.75;100.00
56070;BME280;41944;52.078;-0.058;2022-12-10T06:27:23;100656.85;;;-1.83;100.00
56070;BME280;41944;52.078;-0.058;2022-12-10T06:29:50;100659.45;;;-1.78;100.00
56070;BME280;41944;52.078;-0.058;2022-12-10T06:32:17;100659.34;;;-1.59;100.00
56070;BME280;41944;52.078;-0.058;2022-12-10T06:34:44;100661.18;;;-1.43;100.00
56070;BME280;41944;52.078;-0.058;2022-12-10T06:37:11;100661.63;;;-1.49;100.00
56070;BME280;41944;52.078;-0.058;2022-12-10T06:39:38;100665.22;;;-1.70;100.00
56070;BME280;41944;52.078;-0.058;2022-12-10T06:42:05;100670.72;;;-1.62;100.00
56070;BME280;41944;52.078;-0.058;2022-12-10T06:44:32;100668.32;;;-1.69;100.00
56070;BME280;41944;52.078;-0.058;2022-12-10T06:46:59;100670.47;;;-1.71;100.00
56070;BME280;41944;52.078;-0.058;2022-12-10T06:49:26;100670.27;;;-1.78;100.00
56070;BME280;41944;52.078;-0.058;2022-12-10T06:51:53;100670.31;;;-1.85;100.00
56070;BME280;41944;52.078;-0.058;2022-12-10T06:54:20;100670.15;;;-1.97;100.00
56070;BME280;41944;52.078;-0.058;2022-12-10T06:56:48;100668.07;;;-2.01;100.00
56070;BME280;41944;52.078;-0.058;2022-12-10T06:59:15;100663.25;;;-2.03;100.00
56070;BME280;41944;52.078;-0.058;2022-12-10T07:01:42;100661.93;;;-1.98;100.00
56070;BME280;41944;52.078;-0.058;2022-12-10T07:04:09;100662.86;;;-2.02;100.00
56070;BME280;41944;52.078;-0.058;2022-12-10T07:06:36;100663.58;;;-1.89;100.00
56070;BME280;41944;52.078;-0.058;2022-12-10T07:09:03;100668.86;;;-1.91;100.00
56070;BME280;41944;52.078;-0.058;2022-12-10T07:11:30;100671.17;;;-1.97;100.00
56070;BME280;41944;52.078;-0.058;2022-12-10T07:13:58;100672.65;;;-1.98;100.00
56070;BME280;41944;52.078;-0.058;2022-12-10T07:16:27;100669.93;;;-2.06;100.00
56070;BME280;41944;52.078;-0.058;2022-12-10T07:18:57;100676.47;;;-1.84;100.00
56070;BME280;41944;52.078;-0.058;2022-12-10T07:21:25;100678.02;;;-1.83;100.00
56070;BME280;41944;52.078;-0.058;2022-12-10T07:23:55;100677.09;;;-1.68;100.00
56070;BME280;41944;52.078;-0.058;2022-12-10T07:26:23;100675.17;;;-1.45;100.00
56070;BME280;41944;52.078;-0.058;2022-12-10T07:28:49;100678.10;;;-1.46;100.00
56070;BME280;41944;52.078;-0.058;2022-12-10T07:31:16;100680.42;;;-1.40;100.00
56070;BME280;41944;52.078;-0.058;2022-12-10T07:33:43;100682.99;;;-1.34;100.00
56070;BME280;41944;52.078;-0.058;2022-12-10T07:36:12;100689.48;;;-1.37;100.00
56070;BME280;41944;52.078;-0.058;2022-12-10T07:38:39;100694.89;;;-1.49;100.00
56070;BME280;41944;52.078;-0.058;2022-12-10T07:41:07;100693.43;;;-1.62;100.00
56070;BME280;41944;52.078;-0.058;2022-12-10T07:43:36;100693.14;;;-1.73;100.00
56070;BME280;41944;52.078;-0.058;2022-12-10T07:46:04;100693.70;;;-1.60;100.00
56070;BME280;41944;52.078;-0.058;2022-12-10T07:48:33;100694.48;;;-1.61;100.00
56070;BME280;41944;52.078;-0.058;2022-12-10T07:51:01;100695.75;;;-1.63;100.00
56070;BME280;41944;52.078;-0.058;2022-12-10T07:53:28;100692.38;;;-1.64;100.00
56070;BME280;41944;52.078;-0.058;2022-12-10T07:55:55;100695.26;;;-1.65;100.00
56070;BME280;41944;52.078;-0.058;2022-12-10T07:58:23;100694.15;;;-1.75;100.00
56070;BME280;41944;52.078;-0.058;2022-12-10T08:00:50;100693.21;;;-1.77;100.00
56070;BME280;41944;52.078;-0.058;2022-12-10T08:03:17;100692.02;;;-1.82;100.00
56070;BME280;41944;52.078;-0.058;2022-12-10T08:05:44;100691.80;;;-1.91;100.00
56070;BME280;41944;52.078;-0.058;2022-12-10T08:08:11;100693.73;;;-1.81;100.00
56070;BME280;41944;52.078;-0.058;2022-12-10T08:10:39;100695.05;;;-1.71;100.00
56070;BME280;41944;52.078;-0.058;2022-12-10T08:13:06;100696.92;;;-1.76;100.00
56070;BME280;41944;52.078;-0.058;2022-12-10T08:15:33;100699.15;;;-1.86;100.00
56070;BME280;41944;52.078;-0.058;2022-12-10T08:18:01;100698.20;;;-1.56;99.36
56070;BME280;41944;52.078;-0.058;2022-12-10T08:20:28;100700.05;;;-1.79;99.21
56070;BME280;41944;52.078;-0.058;2022-12-10T08:22:55;100701.81;;;-1.75;99.47
56070;BME280;41944;52.078;-0.058;2022-12-10T08:25:22;100699.83;;;-1.82;99.00
56070;BME280;41944;52.078;-0.058;2022-12-10T08:27:49;100704.95;;;-1.70;98.26
56070;BME280;41944;52.078;-0.058;2022-12-10T08:30:17;100702.06;;;-1.74;98.65
56070;BME280;41944;52.078;-0.058;2022-12-10T08:32:44;100706.57;;;-1.56;98.39
56070;BME280;41944;52.078;-0.058;2022-12-10T08:35:10;100712.44;;;-1.61;98.10
56070;BME280;41944;52.078;-0.058;2022-12-10T08:37:40;100718.47;;;-1.42;97.81
56070;BME280;41944;52.078;-0.058;2022-12-10T08:40:09;100722.08;;;-1.36;97.43
56070;BME280;41944;52.078;-0.058;2022-12-10T08:42:36;100725.84;;;-1.41;97.46
56070;BME280;41944;52.078;-0.058;2022-12-10T08:45:04;100721.86;;;-1.23;97.49
56070;BME280;41944;52.078;-0.058;2022-12-10T08:47:31;100719.95;;;-1.35;97.79
56070;BME280;41944;52.078;-0.058;2022-12-10T08:49:59;100720.92;;;-1.13;97.14
56070;BME280;41944;52.078;-0.058;2022-12-10T08:52:26;100718.28;;;-1.24;97.47
56070;BME280;41944;52.078;-0.058;2022-12-10T08:54:53;100714.70;;;-1.39;97.82
56070;BME280;41944;52.078;-0.058;2022-12-10T08:57:20;100712.43;;;-1.20;97.22
56070;BME280;41944;52.078;-0.058;2022-12-10T08:59:47;100717.27;;;-1.12;97.26
56070;BME280;41944;52.078;-0.058;2022-12-10T09:02:14;100721.06;;;-1.23;97.86
56070;BME280;41944;52.078;-0.058;2022-12-10T09:04:41;100722.65;;;-1.11;97.36
56070;BME280;41944;52.078;-0.058;2022-12-10T09:07:08;100724.48;;;-1.13;97.35
56070;BME280;41944;52.078;-0.058;2022-12-10T09:09:36;100727.21;;;-1.28;97.97
56070;BME280;41944;52.078;-0.058;2022-12-10T09:12:03;100725.34;;;-1.11;98.31
56070;BME280;41944;52.078;-0.058;2022-12-10T09:14:30;100724.67;;;-1.15;98.33
56070;BME280;41944;52.078;-0.058;2022-12-10T09:16:57;100719.99;;;-1.00;98.02
56070;BME280;41944;52.078;-0.058;2022-12-10T09:19:25;100723.11;;;-0.95;98.80
56070;BME280;41944;52.078;-0.058;2022-12-10T09:21:52;100721.64;;;-0.82;98.91
56070;BME280;41944;52.078;-0.058;2022-12-10T09:24:18;100727.57;;;-0.72;99.14
56070;BME280;41944;52.078;-0.058;2022-12-10T09:26:45;100722.71;;;-0.58;98.74
56070;BME280;41944;52.078;-0.058;2022-12-10T09:29:12;100722.72;;;-0.33;98.19
56070;BME280;41944;52.078;-0.058;2022-12-10T09:31:39;100726.34;;;-0.17;98.05
56070;BME280;41944;52.078;-0.058;2022-12-10T09:34:06;100726.35;;;-0.15;97.84
56070;BME280;41944;52.078;-0.058;2022-12-10T09:36:33;100726.04;;;-0.22;98.10
56070;BME280;41944;52.078;-0.058;2022-12-10T09:39:01;100723.75;;;-0.08;97.96
56070;BME280;41944;52.078;-0.058;2022-12-10T09:41:45;100718.99;;;0.13;98.29
56070;BME280;41944;52.078;-0.058;2022-12-10T09:44:25;100723.21;;;0.19;97.85
56070;BME280;41944;52.078;-0.058;2022-12-10T09:46:58;100723.91;;;0.41;97.49
56070;BME280;41944;52.078;-0.058;2022-12-10T09:49:33;100727.36;;;0.59;96.54
56070;BME280;41944;52.078;-0.058;2022-12-10T09:52:12;100730.38;;;0.66;96.03
56070;BME280;41944;52.078;-0.058;2022-12-10T09:54:44;100732.60;;;0.77;95.65
56070;BME280;41944;52.078;-0.058;2022-12-10T09:57:19;100733.46;;;0.91;95.65
56070;BME280;41944;52.078;-0.058;2022-12-10T09:59:50;100735.04;;;1.11;94.86
56070;BME280;41944;52.078;-0.058;2022-12-10T10:02:22;100734.74;;;1.19;95.05
56070;BME280;41944;52.078;-0.058;2022-12-10T10:04:53;100732.25;;;1.63;94.09
56070;BME280;41944;52.078;-0.058;2022-12-10T10:07:23;100728.02;;;1.91;92.41
56070;BME280;41944;52.078;-0.058;2022-12-10T10:09:55;100721.45;;;2.03;90.15
56070;BME280;41944;52.078;-0.058;2022-12-10T10:12:25;100723.58;;;2.43;88.97
56070;BME280;41944;52.078;-0.058;2022-12-10T10:14:53;100721.91;;;2.79;87.18
56070;BME280;41944;52.078;-0.058;2022-12-10T10:17:26;100721.49;;;2.98;85.84
56070;BME280;41944;52.078;-0.058;2022-12-10T10:19:56;100725.84;;;3.23;83.89
56070;BME280;41944;52.078;-0.058;2022-12-10T10:22:23;100728.56;;;3.32;83.79
56070;BME280;41944;52.078;-0.058;2022-12-10T10:24:50;100719.26;;;3.54;81.69
56070;BME280;41944;52.078;-0.058;2022-12-10T10:27:20;100725.22;;;3.38;82.34
56070;BME280;41944;52.078;-0.058;2022-12-10T10:29:50;100727.12;;;3.05;83.36
56070;BME280;41944;52.078;-0.058;2022-12-10T10:32:20;100726.50;;;2.99;84.42
56070;BME280;41944;52.078;-0.058;2022-12-10T10:34:53;100727.78;;;3.04;84.63
56070;BME280;41944;52.078;-0.058;2022-12-10T10:37:22;100733.13;;;3.02;84.88
56070;BME280;41944;52.078;-0.058;2022-12-10T10:39:51;100731.58;;;3.22;84.95
56070;BME280;41944;52.078;-0.058;2022-12-10T10:42:27;100725.78;;;3.12;84.73
56070;BME280;41944;52.078;-0.058;2022-12-10T10:44:58;100731.00;;;3.36;84.27
56070;BME280;41944;52.078;-0.058;2022-12-10T10:47:28;100727.38;;;3.33;83.81
56070;BME280;41944;52.078;-0.058;2022-12-10T10:49:56;100725.16;;;3.08;85.68
56070;BME280;41944;52.078;-0.058;2022-12-10T10:52:23;100727.30;;;3.16;85.43
56070;BME280;41944;52.078;-0.058;2022-12-10T10:54:54;100733.52;;;3.44;84.31
56070;BME280;41944;52.078;-0.058;2022-12-10T10:57:25;100735.50;;;3.38;84.91
56070;BME280;41944;52.078;-0.058;2022-12-10T10:59:55;100738.48;;;3.41;84.63
56070;BME280;41944;52.078;-0.058;2022-12-10T11:02:30;100740.67;;;3.26;85.40
56070;BME280;41944;52.078;-0.058;2022-12-10T11:05:05;100741.47;;;3.39;85.57
56070;BME280;41944;52.078;-0.058;2022-12-10T11:07:35;100746.01;;;3.25;86.53
56070;BME280;41944;52.078;-0.058;2022-12-10T11:10:14;100742.92;;;3.30;86.10
56070;BME280;41944;52.078;-0.058;2022-12-10T11:12:44;100740.87;;;3.39;85.80
56070;BME280;41944;52.078;-0.058;2022-12-10T11:15:32;100744.33;;;3.47;85.15
56070;BME280;41944;52.078;-0.058;2022-12-10T11:18:10;100740.09;;;3.41;85.70
56070;BME280;41944;52.078;-0.058;2022-12-10T11:20:58;100735.13;;;3.50;85.84
56070;BME280;41944;52.078;-0.058;2022-12-10T11:23:28;100727.49;;;3.60;84.68
56070;BME280;41944;52.078;-0.058;2022-12-10T11:26:03;100724.39;;;3.62;84.64
56070;BME280;41944;52.078;-0.058;2022-12-10T11:28:40;100720.81;;;3.57;85.20
56070;BME280;41944;52.078;-0.058;2022-12-10T11:31:27;100719.32;;;3.62;85.56
56070;BME280;41944;52.078;-0.058;2022-12-10T11:34:04;100719.89;;;3.45;86.44
56070;BME280;41944;52.078;-0.058;2022-12-10T11:36:41;100719.93;;;3.55;86.07
56070;BME280;41944;52.078;-0.058;2022-12-10T11:39:24;100722.25;;;3.57;85.76
56070;BME280;41944;52.078;-0.058;2022-12-10T11:42:02;100719.99;;;3.67;84.78
56070;BME280;41944;52.078;-0.058;2022-12-10T11:44:37;100724.45;;;3.94;83.60
56070;BME280;41944;52.078;-0.058;2022-12-10T11:47:25;100725.25;;;3.79;83.85
56070;BME280;41944;52.078;-0.058;2022-12-10T11:50:03;100723.23;;;4.01;83.16
56070;BME280;41944;52.078;-0.058;2022-12-10T11:52:42;100720.83;;;4.04;82.40
56070;BME280;41944;52.078;-0.058;2022-12-10T11:55:22;100716.24;;;3.86;83.71
56070;BME280;41944;52.078;-0.058;2022-12-10T11:57:59;100714.33;;;3.99;83.25
56070;BME280;41944;52.078;-0.058;2022-12-10T12:00:37;100710.86;;;3.80;84.62
56070;BME280;41944;52.078;-0.058;2022-12-10T12:03:16;100709.41;;;4.06;83.61
56070;BME280;41944;52.078;-0.058;2022-12-10T12:06:01;100708.43;;;4.10;82.61
56070;BME280;41944;52.078;-0.058;2022-12-10T12:08:42;100710.65;;;4.15;82.62
56070;BME280;41944;52.078;-0.058;2022-12-10T12:11:26;100711.23;;;4.42;81.03
56070;BME280;41944;52.078;-0.058;2022-12-10T12:14:00;100711.34;;;4.30;81.37
56070;BME280;41944;52.078;-0.058;2022-12-10T12:16:31;100712.51;;;4.41;81.01
56070;BME280;41944;52.078;-0.058;2022-12-10T12:19:04;100710.85;;;4.12;82.22
56070;BME280;41944;52.078;-0.058;2022-12-10T12:21:37;100709.64;;;4.25;82.32
56070;BME280;41944;52.078;-0.058;2022-12-10T12:24:11;100712.52;;;4.28;82.20
56070;BME280;41944;52.078;-0.058;2022-12-10T12:26:40;100712.00;;;4.62;81.23
56070;BME280;41944;52.078;-0.058;2022-12-10T12:29:15;100707.19;;;4.60;81.87
56070;BME280;41944;52.078;-0.058;2022-12-10T12:31:47;100706.23;;;4.53;82.08
56070;BME280;41944;52.078;-0.058;2022-12-10T12:34:24;100707.70;;;4.87;80.91
56070;BME280;41944;52.078;-0.058;2022-12-10T12:36:53;100710.15;;;5.04;79.13
56070;BME280;41944;52.078;-0.058;2022-12-10T12:39:27;100708.44;;;5.04;78.62
56070;BME280;41944;52.078;-0.058;2022-12-10T12:42:03;100710.14;;;4.91;79.08
56070;BME280;41944;52.078;-0.058;2022-12-10T12:44:40;100714.93;;;5.04;78.49
56070;BME280;41944;52.078;-0.058;2022-12-10T12:47:26;100713.87;;;5.12;78.09
56070;BME280;41944;52.078;-0.058;2022-12-10T12:49:59;100710.31;;;4.81;79.54
56070;BME280;41944;52.078;-0.058;2022-12-10T12:52:35;100708.84;;;5.02;79.35